Time;durP1;ratioP1;P1;durP2;ratioP2;P2;SDS_P1;SDS_P2;PMS_P1;PMS_P2;Temp;Humidity;BMP_temperature;BMP_pressure;BME280_temperature;BME280_humidity;BME280_pressure;Samples;Min_cycle;Max_cycle;Signal;HPM_P1;HPM_P2
2023/06/25 00:01:21;;;;;;;18.55;14.68;;;;;;;21.09;79.70;101939.47;4977239;23;1079552;-56
2023/06/25 00:03:46;;;;;;;20.48;16.30;;;;;;;21.00;80.09;101942.13;5019703;23;20069;-57
2023/06/25 00:06:12;;;;;;;19.60;15.80;;;;;;;21.05;79.60;101936.84;5034481;23;20060;-56
2023/06/25 00:08:37;;;;;;;19.65;15.60;;;;;;;20.99;79.35;101933.31;4854837;29;20061;-56
2023/06/25 00:11:02;;;;;;;21.42;16.52;;;;;;;20.88;80.19;101928.91;4853834;29;20084;-56
2023/06/25 00:13:28;;;;;;;19.70;16.80;;;;;;;20.90;80.53;101933.34;4855244;29;20044;-56
2023/06/25 00:15:53;;;;;;;20.17;16.65;;;;;;;20.77;81.46;101923.63;5031769;23;20128;-56
2023/06/25 00:18:18;;;;;;;18.73;15.30;;;;;;;20.70;81.90;101927.16;5031939;23;20062;-56
2023/06/25 00:20:46;;;;;;;19.08;15.57;;;;;;;20.67;81.60;101928.06;5008118;23;20064;-56
2023/06/25 00:25:42;;;;;;;18.20;15.20;;;;;;;20.69;81.38;101914.81;5134172;23;20057;-56
2023/06/25 00:28:08;;;;;;;18.53;15.43;;;;;;;20.66;80.78;101921.88;4972972;23;20069;-56
2023/06/25 00:30:37;;;;;;;18.05;15.05;;;;;;;20.62;81.48;101920.09;5127325;23;20325;-56
2023/06/25 00:33:03;;;;;;;19.02;15.50;;;;;;;20.62;81.24;101925.41;4973539;23;20058;-56
2023/06/25 00:35:43;;;;;;;19.60;16.35;;;;;;;20.62;81.02;101922.75;4859306;29;20036;-56
2023/06/25 00:38:09;;;;;;;22.92;17.52;;;;;;;20.52;81.67;101918.31;5013588;23;20996;-56
2023/06/25 00:40:34;;;;;;;21.27;16.85;;;;;;;20.52;81.30;101918.31;4850649;29;20041;-57
2023/06/25 00:43:01;;;;;;;20.85;16.45;;;;;;;20.48;82.11;101913.94;4970950;23;20080;-56
2023/06/25 00:45:26;;;;;;;18.85;15.93;;;;;;;20.48;81.68;101911.28;4962362;23;20065;-56
2023/06/25 00:50:27;;;;;;;19.00;15.68;;;;;;;20.41;81.82;101907.75;4947651;23;20061;-56
2023/06/25 00:52:52;;;;;;;19.13;15.85;;;;;;;20.38;81.70;101912.13;5015422;23;20876;-57
2023/06/25 00:55:19;;;;;;;19.92;16.80;;;;;;;20.33;82.15;101901.56;5161430;23;20032;-56
2023/06/25 00:57:46;;;;;;;20.05;15.85;;;;;;;20.25;81.44;101909.50;4986084;23;20627;-56
2023/06/25 01:00:14;;;;;;;21.23;16.70;;;;;;;20.17;82.53;101908.59;4857958;29;20029;-57
2023/06/25 01:05:39;;;;;;;21.00;16.60;;;;;;;20.11;82.72;101900.69;5137840;23;20057;-56
2023/06/25 01:10:43;;;;;;;20.15;16.23;;;;;;;20.02;83.20;101904.19;4856492;29;20053;-56
2023/06/25 01:13:08;;;;;;;21.15;16.67;;;;;;;19.95;83.92;101894.47;5215987;23;20064;-56
2023/06/25 01:15:34;;;;;;;20.13;16.55;;;;;;;19.92;83.35;101895.34;5062947;23;20040;-56
2023/06/25 01:17:59;;;;;;;21.20;17.63;;;;;;;19.88;83.38;101893.56;5215962;23;20057;-56
2023/06/25 01:20:27;;;;;;;21.45;17.30;;;;;;;19.88;83.76;101890.06;4865277;29;20039;-56
2023/06/25 01:25:28;;;;;;;20.58;16.52;;;;;;;19.83;83.46;101899.75;5069770;23;20061;-56
2023/06/25 01:27:54;;;;;;;20.58;17.40;;;;;;;19.77;84.16;101882.97;5043837;23;20053;-58
2023/06/25 01:30:21;;;;;;;21.35;17.67;;;;;;;19.71;84.03;101884.69;5002973;23;20099;-56
2023/06/25 01:32:47;;;;;;;21.77;17.02;;;;;;;19.71;84.59;101880.31;4856180;29;20529;-56
2023/06/25 01:37:37;;;;;;;20.98;18.02;;;;;;;19.59;85.77;101883.78;5139309;23;20053;-55
2023/06/25 01:40:03;;;;;;;20.67;17.63;;;;;;;19.58;84.55;101868.81;4852427;29;20521;-56
2023/06/25 01:45:04;;;;;;;19.88;17.00;;;;;;;19.48;85.38;101867.03;4976604;23;20058;-57
2023/06/25 01:47:29;;;;;;;20.70;17.98;;;;;;;19.45;85.72;101862.63;4965768;23;20064;-56
2023/06/25 01:52:29;;;;;;;20.20;16.88;;;;;;;19.41;85.64;101859.97;5127868;23;20057;-57
2023/06/25 01:54:54;;;;;;;19.85;16.00;;;;;;;19.40;85.33;101852.91;4994086;23;20036;-56
2023/06/25 01:57:20;;;;;;;21.17;17.75;;;;;;;19.34;85.55;101853.75;5051670;23;20038;-57
2023/06/25 01:59:45;;;;;;;20.60;18.02;;;;;;;19.38;85.48;101854.63;4958514;23;20140;-57
2023/06/25 02:02:10;;;;;;;23.52;18.13;;;;;;;19.32;86.48;101847.59;5013094;23;20136;-57
2023/06/25 02:04:36;;;;;;;22.88;19.45;;;;;;;19.27;86.24;101846.69;5025531;23;20204;-57
2023/06/25 02:07:01;;;;;;;21.58;18.17;;;;;;;19.18;87.36;101850.19;5044150;23;20067;-57
2023/06/25 02:09:26;;;;;;;19.38;16.63;;;;;;;19.23;86.15;101842.25;5062100;23;20068;-58
2023/06/25 02:14:27;;;;;;;20.48;17.02;;;;;;;19.14;86.76;101834.31;5010337;23;20071;-58
2023/06/25 02:16:52;;;;;;;22.33;18.15;;;;;;;19.12;86.95;101834.31;4975935;23;20544;-56
2023/06/25 02:19:17;;;;;;;21.58;17.85;;;;;;;19.10;86.73;101833.41;4986348;23;20052;-56
2023/06/25 02:21:43;;;;;;;21.87;18.73;;;;;;;18.92;88.43;101824.53;4942412;23;20141;-57
2023/06/25 02:24:08;;;;;;;19.23;17.23;;;;;;;18.82;88.74;101817.41;5142142;23;20140;-57
2023/06/25 02:26:34;;;;;;;19.77;16.23;;;;;;;18.79;89.10;101817.38;5037438;23;20065;-57
2023/06/25 02:31:29;;;;;;;20.55;16.52;;;;;;;18.73;89.66;101812.97;5151682;23;20757;-57
2023/06/25 02:33:54;;;;;;;19.02;16.52;;;;;;;18.70;89.51;101806.78;5063642;23;20117;-55
2023/06/25 02:36:19;;;;;;;19.40;16.80;;;;;;;18.60;90.54;101814.63;5155327;23;20339;-57
2023/06/25 02:38:45;;;;;;;20.98;17.40;;;;;;;18.54;90.65;101808.47;5069382;23;20065;-57
2023/06/25 02:41:10;;;;;;;19.45;16.52;;;;;;;18.51;90.75;101805.78;4999692;23;20061;-57
2023/06/25 02:43:35;;;;;;;20.60;17.35;;;;;;;18.49;90.58;101800.50;5224673;23;20063;-57
2023/06/25 02:46:01;;;;;;;20.98;18.00;;;;;;;18.57;89.72;101797.91;5205439;23;20068;-56
2023/06/25 02:48:26;;;;;;;19.15;16.67;;;;;;;18.60;89.12;101808.50;4852426;29;20513;-56
2023/06/25 02:50:51;;;;;;;20.63;17.45;;;;;;;18.59;89.17;101802.31;5032884;23;20034;-56
2023/06/25 02:53:16;;;;;;;19.60;17.50;;;;;;;18.64;88.67;101810.28;5033602;23;20088;-57
2023/06/25 02:55:42;;;;;;;20.30;17.90;;;;;;;18.63;87.98;101805.88;4953419;23;20038;-57
2023/06/25 02:58:07;;;;;;;21.48;17.25;;;;;;;18.63;88.25;101805.00;4949001;23;20069;-57
2023/06/25 03:03:01;;;;;;;;;;;;;;;18.71;85.45;101797.97;5085609;23;20117;-56
2023/06/25 03:05:26;;;;;;;23.97;18.23;;;;;;;18.59;89.05;101797.03;5203665;23;19935;-56
2023/06/25 03:07:58;;;;;;;19.85;17.70;;;;;;;18.56;89.31;101806.69;5035282;23;20474;-56
2023/06/25 03:12:53;;;;;;;18.95;15.88;;;;;;;18.47;88.87;101799.63;5101769;23;20061;-56
2023/06/25 03:15:19;;;;;;;19.92;17.55;;;;;;;18.44;89.17;101796.97;5031828;23;20057;-56
2023/06/25 03:20:10;;;;;;;21.60;17.90;;;;;;;18.41;89.44;101794.31;5280384;23;20024;-56
2023/06/25 03:22:36;;;;;;;20.52;17.08;;;;;;;18.40;88.24;101793.41;5030773;23;20077;-57
2023/06/25 03:32:39;;;;;;;24.00;19.40;;;;;;;18.26;89.08;101795.06;5004352;23;20063;-56
2023/06/25 03:35:05;;;;;;;21.25;18.77;;;;;;;18.28;88.91;101795.06;4963191;23;20053;-57
2023/06/25 03:37:30;;;;;;;23.13;19.15;;;;;;;18.25;90.18;101783.63;4959406;23;20524;-57
2023/06/25 03:39:56;;;;;;;22.38;19.40;;;;;;;18.19;91.17;101777.44;5015268;23;20066;-57
2023/06/25 03:42:21;;;;;;;21.15;18.70;;;;;;;18.18;90.41;101773.91;5219113;23;20024;-57
2023/06/25 03:44:50;;;;;;;19.67;16.50;;;;;;;18.18;90.57;101783.59;4994915;23;20044;-57
2023/06/25 03:52:24;;;;;;;24.73;20.70;;;;;;;18.02;92.04;101778.19;5143902;23;21202;-58
2023/06/25 03:54:49;;;;;;;21.83;19.25;;;;;;;18.03;91.88;101771.16;5046555;23;20425;-57
2023/06/25 03:57:15;;;;;;;25.40;19.38;;;;;;;17.98;92.39;101772.91;4942797;23;20106;-56
2023/06/25 03:59:40;;;;;;;24.55;21.05;;;;;;;17.93;92.71;101771.97;5014834;23;20038;-57
2023/06/25 04:02:07;;;;;;;23.52;20.50;;;;;;;17.87;93.32;101785.94;5022834;23;20027;-57
2023/06/25 04:04:32;;;;;;;24.90;20.65;;;;;;;17.77;93.87;101777.09;5044793;23;20057;-57
2023/06/25 04:06:57;;;;;;;20.83;18.63;;;;;;;17.75;94.11;101778.81;4856088;29;20040;-58
2023/06/25 04:09:23;;;;;;;22.42;20.02;;;;;;;17.66;94.51;101781.38;4857452;29;20115;-57
2023/06/25 04:11:57;;;;;;;22.42;20.02;;;;;;;17.56;95.34;101786.53;5120652;23;20060;31
2023/06/25 04:14:22;;;;;;;25.70;22.80;;;;;;;17.47;96.45;101778.56;4831031;29;20057;-57
2023/06/25 04:16:47;;;;;;;23.30;20.50;;;;;;;17.47;96.81;101781.19;4999538;23;20062;-57
2023/06/25 04:19:13;;;;;;;26.88;23.08;;;;;;;17.49;96.83;101782.06;4859639;29;20033;-57
2023/06/25 04:24:21;;;;;;;28.45;24.48;;;;;;;17.59;96.66;101779.56;4862144;29;20057;-96
2023/06/25 04:26:49;;;;;;;28.38;23.50;;;;;;;17.66;96.10;101781.38;4879060;29;20021;-96
2023/06/25 04:29:17;;;;;;;27.23;23.92;;;;;;;17.69;95.54;101777.00;4864320;29;20029;-96
2023/06/25 04:31:43;;;;;;;29.38;26.33;;;;;;;17.74;95.28;101774.41;4862994;29;20057;-96
2023/06/25 04:34:15;;;;;;;32.97;29.30;;;;;;;17.78;95.51;101770.94;4864802;29;20062;-96
2023/06/25 04:36:43;;;;;;;31.52;27.98;;;;;;;17.82;95.04;101764.81;4862092;29;20079;-96
2023/06/25 04:39:09;;;;;;;32.42;28.85;;;;;;;17.85;95.30;101767.47;4880956;29;20029;-96
2023/06/25 04:41:34;;;;;;;34.45;30.73;;;;;;;17.86;95.44;101774.53;4863919;29;20090;-96
2023/06/25 04:44:02;;;;;;;35.28;31.55;;;;;;;17.87;94.83;101772.75;4863674;29;20078;-96
2023/06/25 04:46:27;;;;;;;38.00;34.10;;;;;;;17.88;95.31;101770.13;4872373;23;20046;-56
2023/06/25 04:48:53;;;;;;;43.92;39.33;;;;;;;17.93;96.03;101774.59;4841669;29;20029;-56
2023/06/25 04:53:48;;;;;;;44.75;40.17;;;;;;;17.96;95.87;101774.63;4979817;23;20129;-57
2023/06/25 04:56:15;;;;;;;51.15;45.95;;;;;;;17.97;95.80;101776.38;4976339;23;20487;-56
2023/06/25 04:58:40;;;;;;;56.67;51.00;;;;;;;17.95;95.79;101783.41;4859772;29;20051;-56
2023/06/25 05:01:09;;;;;;;58.42;52.72;;;;;;;17.93;96.75;101772.88;4909136;23;20024;-96
2023/06/25 05:03:36;;;;;;;65.15;58.75;;;;;;;17.86;97.13;101774.53;4885271;29;20046;-96
2023/06/25 05:06:02;;;;;;;62.88;56.78;;;;;;;17.94;97.41;101771.09;4888719;29;20024;-96
2023/06/25 05:08:31;;;;;;;67.75;61.25;;;;;;;17.96;97.76;101774.63;4884398;29;20294;-96
2023/06/25 05:11:17;;;;;;;72.97;66.03;;;;;;;17.97;98.01;101771.13;4879099;29;20021;-96
2023/06/25 05:14:14;;;;;;;77.22;69.57;;;;;;;17.96;98.43;101770.25;4872961;29;20082;-96
2023/06/25 05:16:43;;;;;;;75.30;68.07;;;;;;;17.98;98.14;101767.63;4874585;29;20053;-96
2023/06/25 05:19:21;;;;;;;80.60;72.95;;;;;;;18.01;98.02;101767.63;4876710;29;20034;-96
2023/06/25 05:21:51;;;;;;;79.35;71.80;;;;;;;18.03;95.43;101772.06;4871270;29;20020;-96
2023/06/25 05:24:17;;;;;;;87.72;79.25;;;;;;;18.02;97.81;101774.69;4868673;29;20062;-96
2023/06/25 05:26:52;;;;;;;90.22;81.32;;;;;;;18.06;97.89;101771.16;4861311;29;20010;-96
2023/06/25 05:29:17;;;;;;;85.97;77.53;;;;;;;18.09;97.46;101765.94;4868610;29;20062;-96
2023/06/25 05:31:43;;;;;;;86.75;78.30;;;;;;;18.12;97.72;101768.59;4877610;29;20128;-96
2023/06/25 05:34:16;;;;;;;78.53;70.53;;;;;;;18.14;96.12;101772.13;4853995;29;20029;-96
2023/06/25 05:36:41;;;;;;;81.07;73.28;;;;;;;18.18;97.10;101776.56;4858975;29;20029;-96
2023/06/25 05:39:08;;;;;;;80.45;72.28;;;;;;;18.19;96.59;101774.78;4887179;29;20090;-96
2023/06/25 05:41:44;;;;;;;75.55;67.88;;;;;;;18.22;96.04;101767.78;4869494;29;20033;-96
2023/06/25 05:44:10;;;;;;;68.80;61.45;;;;;;;18.26;95.29;101763.41;4869046;29;20029;-96
2023/06/25 05:46:35;;;;;;;73.38;66.05;;;;;;;18.32;96.74;101768.75;4850354;29;20022;-96
2023/06/25 05:49:01;;;;;;;69.13;61.90;;;;;;;18.35;95.32;101762.56;4867794;29;20038;-96
2023/06/25 05:51:27;;;;;;;66.85;60.08;;;;;;;18.45;95.85;101764.44;4869378;29;20013;-96
2023/06/25 05:54:23;;;;;;;61.38;55.08;;;;;;;18.55;93.35;101758.31;4866026;29;20037;-96
2023/06/25 05:57:41;;;;;;;56.05;50.33;;;;;;;18.70;93.74;101762.78;4870447;29;20037;-96
2023/06/25 06:00:17;;;;;;;58.90;52.83;;;;;;;18.81;93.31;101754.03;4865788;29;20036;-96
2023/06/25 06:03:09;;;;;;;60.35;53.92;;;;;;;18.89;93.70;101755.84;4867050;29;20049;-96
2023/06/25 06:05:38;;;;;;;55.40;49.60;;;;;;;18.99;93.51;101758.50;4885392;29;20050;-96
2023/06/25 06:08:10;;;;;;;54.13;48.17;;;;;;;19.09;93.58;101757.69;4869591;29;20022;-96
2023/06/25 06:10:54;;;;;;;52.35;46.88;;;;;;;19.20;93.02;101752.41;4867131;29;20094;-96
2023/06/25 06:13:21;;;;;;;57.47;51.42;;;;;;;19.33;92.66;101748.91;4889766;23;20028;-56
2023/06/25 06:22:14;;;;;;;;;;;;;;;;;;;;;
2023/06/25 06:24:55;;;;;;;39.30;34.90;;;;;;;19.79;87.51;101753.41;5046113;28;20025;-96
2023/06/25 06:31:29;;;;;;;38.97;34.40;;;;;;;20.07;86.04;101756.03;4913489;28;20121;-95
2023/06/25 06:33:58;;;;;;;31.70;26.75;;;;;;;20.18;84.62;101753.38;5032750;28;20044;-96
2023/06/25 06:36:23;;;;;;;38.60;31.92;;;;;;;20.34;85.18;101760.41;5070118;22;20029;-55
2023/06/25 06:38:50;;;;;;;34.67;29.67;;;;;;;20.41;81.35;101755.97;5194668;22;20089;-54
2023/06/25 06:41:15;;;;;;;36.13;28.55;;;;;;;20.55;81.22;101754.16;5132332;22;20046;-55
2023/06/25 06:43:40;;;;;;;36.25;28.88;;;;;;;20.71;82.42;101755.03;5021413;28;20032;-55
2023/06/25 06:46:06;;;;;;;31.50;25.17;;;;;;;20.84;83.84;101751.44;5109640;23;21070;-57
2023/06/25 06:48:31;;;;;;;64.35;43.78;;;;;;;21.02;84.64;101752.22;5315057;22;20140;-56
2023/06/25 06:50:56;;;;;;;37.13;28.40;;;;;;;21.11;80.96;101743.34;5042837;28;20025;-55
2023/06/25 06:53:21;;;;;;;29.33;22.50;;;;;;;21.26;80.00;101745.00;5149395;22;20099;-57
2023/06/25 06:55:47;;;;;;;30.30;21.85;;;;;;;21.44;81.51;101741.38;5145141;22;20801;-60
2023/06/25 06:58:12;;;;;;;30.48;22.45;;;;;;;21.52;80.10;101744.84;5233434;22;20195;-60
2023/06/25 07:00:37;;;;;;;26.58;19.33;;;;;;;21.67;79.37;101739.44;5196735;22;20068;-60
2023/06/25 07:03:03;;;;;;;26.73;18.58;;;;;;;21.79;76.45;101742.88;5040518;22;20057;-96
2023/06/25 07:05:28;;;;;;;24.08;16.95;;;;;;;21.95;79.50;101741.84;5017570;28;20113;-96
2023/06/25 07:07:54;;;;;;;22.92;17.27;;;;;;;22.02;77.69;101738.25;5018153;22;20146;-60
2023/06/25 07:10:19;;;;;;;24.00;16.77;;;;;;;22.18;78.92;101741.63;5084615;22;20053;-59
2023/06/25 07:12:44;;;;;;;23.25;16.08;;;;;;;22.24;72.58;101738.03;5167913;22;20041;-57
2023/06/25 07:15:10;;;;;;;20.33;14.13;;;;;;;22.35;76.49;101735.28;5325124;22;20061;-58
2023/06/25 07:17:35;;;;;;;25.10;17.40;;;;;;;22.44;71.65;101747.59;5025658;28;20408;-56
2023/06/25 07:20:00;;;;;;;19.48;14.90;;;;;;;22.62;72.52;101741.16;5095132;22;20110;-59
2023/06/25 07:22:26;;;;;;;19.83;12.93;;;;;;;22.83;73.10;101750.66;5117477;22;20416;-57
2023/06/25 07:24:51;;;;;;;17.30;12.40;;;;;;;22.89;66.80;101751.44;5223674;22;20515;-60
2023/06/25 07:27:16;;;;;;;19.52;11.93;;;;;;;22.97;65.35;101754.00;5238927;22;20049;-60
2023/06/25 07:29:42;;;;;;;16.52;11.27;;;;;;;23.00;62.94;101743.34;5193548;22;20509;-57
2023/06/25 07:32:08;;;;;;;15.95;11.45;;;;;;;23.11;69.15;101737.00;5031910;28;20404;-57
2023/06/25 07:34:33;;;;;;;16.77;10.80;;;;;;;23.18;66.69;101730.72;5030655;28;20033;-57
2023/06/25 07:39:33;;;;;;;17.42;10.65;;;;;;;23.47;68.26;101730.25;5010988;28;20062;-60
2023/06/25 07:41:59;;;;;;;14.43;10.10;;;;;;;23.59;67.51;101726.50;5353929;22;21679;-57
2023/06/25 07:44:24;;;;;;;13.63;9.90;;;;;;;23.67;66.08;101724.59;5013635;28;20033;-58
2023/06/25 07:46:50;;;;;;;15.52;10.32;;;;;;;23.84;66.00;101726.09;5207027;22;20428;-60
2023/06/25 07:49:15;;;;;;;14.75;9.13;;;;;;;24.06;62.15;101727.50;5306018;22;20046;-57
2023/06/25 07:54:10;;;;;;;13.43;9.73;;;;;;;24.30;61.01;101719.94;5261171;22;20081;-59
2023/06/25 07:56:35;;;;;;;15.73;9.38;;;;;;;24.40;59.79;101716.16;5092504;22;20057;-57
2023/06/25 07:59:00;;;;;;;12.70;8.93;;;;;;;24.52;56.61;101720.41;5045851;22;20051;-57
2023/06/25 08:04:01;;;;;;;13.43;9.35;;;;;;;24.70;55.96;101719.16;5084238;23;20082;-60
2023/06/25 08:06:27;;;;;;;31.65;22.73;;;;;;;24.80;56.72;101714.50;5156395;23;20050;-57
2023/06/25 08:08:52;;;;;;;11.00;8.32;;;;;;;24.88;55.81;101716.97;4989650;28;20121;-58
2023/06/25 08:11:17;;;;;;;13.23;9.00;;;;;;;24.94;55.84;101708.84;5100984;23;20459;-58
2023/06/25 08:13:43;;;;;;;10.80;8.73;;;;;;;25.07;55.74;101707.66;5081920;23;20050;-61
2023/06/25 08:16:08;;;;;;;11.90;9.30;;;;;;;25.10;54.46;101715.59;4991324;28;20337;-61
2023/06/25 08:18:33;;;;;;;11.00;9.02;;;;;;;25.14;57.91;101714.63;4990289;28;20548;-61
2023/06/25 08:20:59;;;;;;;12.77;8.80;;;;;;;25.30;56.18;101708.91;4989289;28;20034;-60
2023/06/25 08:25:49;;;;;;;10.93;9.00;;;;;;;25.54;57.14;101707.44;5133558;23;20314;-57
2023/06/25 08:28:14;;;;;;;11.90;9.32;;;;;;;25.71;57.53;101709.69;5372605;23;20517;-58
2023/06/25 08:30:40;;;;;;;11.40;8.80;;;;;;;25.94;55.49;101708.19;4985781;28;20081;-58
2023/06/25 08:33:05;;;;;;;10.38;8.68;;;;;;;25.82;52.88;101702.28;5290007;22;20024;-58
2023/06/25 08:38:00;;;;;;;10.77;8.45;;;;;;;25.99;52.54;101703.63;5054101;23;20042;-58
2023/06/25 08:40:26;;;;;;;10.23;8.83;;;;;;;26.14;52.77;101699.66;5159044;23;20069;-58
2023/06/25 08:43:02;;;;;;;12.57;8.93;;;;;;;26.28;54.03;101693.94;5331533;23;20280;31
2023/06/25 08:50:28;;;;;;;11.40;8.30;;;;;;;26.58;53.12;101691.28;5286417;22;20500;-61
2023/06/25 08:52:55;;;;;;;11.43;8.60;;;;;;;26.73;52.96;101686.38;5118674;22;20049;-58
2023/06/25 08:55:22;;;;;;;10.32;8.52;;;;;;;26.92;53.39;101685.81;5126815;22;20045;-58
2023/06/25 09:00:23;;;;;;;10.88;8.15;;;;;;;27.21;49.57;101682.22;5308042;22;20057;-58
2023/06/25 09:02:49;;;;;;;10.05;7.07;;;;;;;27.14;48.31;101688.69;5181171;22;20325;-58
2023/06/25 09:10:26;;;;;;;8.55;7.40;;;;;;;27.53;49.70;101685.63;5359688;22;20037;-61
2023/06/25 09:12:51;;;;;;;9.85;6.97;;;;;;;27.70;49.08;101689.53;5254032;22;20053;-58
2023/06/25 09:17:42;;;;;;;10.05;6.97;;;;;;;27.99;46.95;101680.47;5315880;22;20034;-58
2023/06/25 09:20:07;;;;;;;8.73;7.40;;;;;;;28.15;47.99;101678.09;5287432;22;20101;-58
2023/06/25 09:22:33;;;;;;;10.13;7.28;;;;;;;28.18;49.90;101669.94;5229690;22;20316;-61
2023/06/25 09:27:38;;;;;;;9.65;6.95;;;;;;;28.68;46.74;101662.72;5344238;22;20045;-62
2023/06/25 09:32:52;;;;;;;7.72;6.90;;;;;;;28.80;49.84;101659.56;5107416;23;20308;-59
2023/06/25 09:37:52;;;;;;;9.07;6.88;;;;;;;29.11;44.83;101661.91;5112806;23;20049;-59
2023/06/25 09:40:19;;;;;;;8.32;7.32;;;;;;;29.22;46.21;101668.63;5015119;28;20573;-59
2023/06/25 09:42:47;;;;;;;8.88;7.28;;;;;;;29.28;46.81;101668.38;5160512;22;20057;-59
2023/06/25 09:45:15;;;;;;;7.93;6.82;;;;;;;29.33;44.42;101660.13;5194939;22;20112;-62
2023/06/25 09:47:45;;;;;;;11.75;6.90;;;;;;;29.26;44.44;101651.50;5370394;22;20069;-58
2023/06/25 09:52:58;;;;;;;7.47;6.50;;;;;;;29.07;43.71;101660.28;5115296;22;20488;-59
2023/06/25 09:57:55;;;;;;;8.25;6.15;;;;;;;28.90;43.53;101646.69;5011870;28;20812;-62
2023/06/25 10:05:32;;;;;;;7.93;6.50;;;;;;;29.43;46.07;101648.06;5027413;23;20777;-59
2023/06/25 10:07:58;;;;;;;7.35;6.55;;;;;;;29.52;40.62;101650.38;5184803;22;20056;-59
2023/06/25 10:10:27;;;;;;;7.75;6.00;;;;;;;29.82;41.38;101648.19;5002830;28;20048;-59
2023/06/25 10:12:52;;;;;;;;;;;;;;;29.96;42.55;101641.31;5305742;22;20064;-59
2023/06/25 10:18:04;;;;;;;7.40;6.28;;;;;;;30.03;41.35;101641.91;5219198;22;20050;-59
2023/06/25 10:25:31;;;;;;;10.02;7.20;;;;;;;29.78;39.77;101637.59;5313342;22;20070;-59
2023/06/25 10:28:13;;;;;;;8.07;6.35;;;;;;;30.09;41.89;101634.41;5154131;22;20058;-59
2023/06/25 10:33:16;;;;;;;7.85;6.78;;;;;;;29.78;37.84;101626.88;5191292;22;20070;-59
2023/06/25 10:35:44;;;;;;;8.70;6.32;;;;;;;29.73;40.35;101620.81;4997634;28;20505;-58
2023/06/25 10:38:09;;;;;;;8.15;6.28;;;;;;;30.12;41.23;101622.66;4997504;28;20493;-59
2023/06/25 10:40:39;;;;;;;7.68;6.55;;;;;;;30.24;40.60;101622.09;5178821;22;20104;-60
2023/06/25 10:43:05;;;;;;;7.72;6.00;;;;;;;30.55;40.65;101628.72;5191794;22;20061;-59
2023/06/25 10:45:32;;;;;;;8.40;7.00;;;;;;;30.82;38.10;101621.13;5012845;28;20493;-59
2023/06/25 10:50:33;;;;;;;7.00;5.78;;;;;;;31.28;39.90;101614.38;5221897;22;20050;-62
2023/06/25 10:53:00;;;;;;;7.78;6.30;;;;;;;31.42;34.99;101614.56;5329398;22;20050;-59
2023/06/25 10:55:25;;;;;;;8.82;6.47;;;;;;;31.23;37.65;101611.94;5218829;22;20054;-60
2023/06/25 10:57:55;;;;;;;7.57;6.05;;;;;;;31.23;39.08;101606.56;5009040;28;20053;-59
2023/06/25 11:02:51;;;;;;;7.88;6.40;;;;;;;30.84;34.64;101602.22;5396495;22;20046;-60
2023/06/25 11:10:27;;;;;;;7.07;6.20;;;;;;;30.90;33.91;101591.13;5016862;23;20491;-58
2023/06/25 11:12:53;;;;;;;7.38;6.15;;;;;;;30.80;37.08;101601.47;5325176;22;20029;-59
2023/06/25 11:15:19;;;;;;;6.38;5.78;;;;;;;31.18;35.85;101587.94;5151447;22;20049;-59
2023/06/25 11:17:45;;;;;;;7.75;6.25;;;;;;;31.41;36.13;101593.09;5178892;22;20168;-59
2023/06/25 11:20:11;;;;;;;6.40;5.80;;;;;;;31.63;35.59;101588.34;5124944;23;20058;-58
2023/06/25 11:22:44;;;;;;;7.47;6.70;;;;;;;31.72;35.66;101586.97;5011637;28;20029;-58
2023/06/25 11:25:11;;;;;;;8.00;6.20;;;;;;;32.12;36.20;101583.91;5325779;22;1070817;-58
2023/06/25 11:30:12;;;;;;;7.25;6.55;;;;;;;32.50;35.18;101583.59;5239738;22;20058;-57
2023/06/25 11:32:39;;;;;;;7.13;6.43;;;;;;;32.46;34.74;101577.50;5339132;22;20433;-58
2023/06/25 11:35:10;;;;;;;8.57;6.68;;;;;;;32.34;35.58;101571.00;5177409;22;20110;-60
2023/06/25 11:37:46;;;;;;;7.32;6.60;;;;;;;32.25;35.58;101568.81;5157261;23;20064;-59
2023/06/25 11:40:22;;;;;;;7.28;6.43;;;;;;;32.11;37.25;101574.06;5305132;22;21667;-59
2023/06/25 11:42:47;;;;;;;7.38;6.57;;;;;;;32.12;33.41;101567.72;5386123;22;21028;-59
2023/06/25 11:45:13;;;;;;;7.25;6.25;;;;;;;32.25;34.64;101566.09;5256719;22;20029;-60
2023/06/25 11:47:44;;;;;;;7.87;6.70;;;;;;;32.36;34.46;101566.38;5119862;23;20106;-64
2023/06/25 11:50:11;;;;;;;7.55;6.85;;;;;;;32.29;32.44;101558.72;5191776;22;20371;-59
2023/06/25 11:52:37;;;;;;;7.05;6.38;;;;;;;32.51;32.49;101553.81;5186480;22;20074;-60
2023/06/25 11:55:04;;;;;;;7.80;6.75;;;;;;;32.40;33.56;101553.56;5003190;28;20033;-59
2023/06/25 11:57:29;;;;;;;7.85;6.95;;;;;;;32.14;33.97;101550.56;5006832;28;20025;-60
2023/06/25 11:59:54;;;;;;;8.03;7.20;;;;;;;32.17;34.88;101541.38;5119569;22;20468;-59
2023/06/25 12:04:52;;;;;;;8.50;7.70;;;;;;;32.35;35.32;101545.75;5169975;22;20320;-59
2023/06/25 12:12:27;;;;;;;9.00;6.78;;;;;;;32.48;33.38;101536.97;4992373;28;20109;-60
2023/06/25 12:14:52;;;;;;;7.22;6.53;;;;;;;32.74;37.39;101533.63;4997649;28;20030;-60
2023/06/25 12:17:18;;;;;;;7.80;6.90;;;;;;;32.87;35.00;101528.34;4999906;28;20025;-60
2023/06/25 12:19:43;;;;;;;7.50;6.80;;;;;;;32.85;36.49;101524.91;4996785;28;20038;-59
2023/06/25 12:22:09;;;;;;;8.60;6.90;;;;;;;32.85;34.13;101518.59;4996859;28;20030;-59
2023/06/25 12:27:09;;;;;;;7.70;6.90;;;;;;;32.97;33.26;101523.28;5056704;22;20152;-96
2023/06/25 12:29:38;;;;;;;9.95;6.45;;;;;;;32.80;32.87;101515.34;5018995;28;20702;-96
2023/06/25 12:32:03;;;;;;;7.68;6.90;;;;;;;32.59;34.71;101510.22;5001458;28;20116;-95
2023/06/25 12:34:29;;;;;;;7.82;6.28;;;;;;;32.31;33.39;101509.09;5006349;28;20132;-96
2023/06/25 12:36:56;;;;;;;6.97;6.28;;;;;;;32.49;33.43;101507.19;5000353;28;20040;-95
2023/06/25 12:39:22;;;;;;;7.95;6.30;;;;;;;32.71;35.70;101509.50;5017965;28;20149;-96
2023/06/25 12:41:53;;;;;;;8.27;6.68;;;;;;;32.88;33.51;101507.66;5006674;28;20025;-96
2023/06/25 12:44:19;;;;;;;7.43;6.72;;;;;;;33.10;32.56;101496.41;4997933;28;20041;-96
2023/06/25 12:46:44;;;;;;;7.50;6.70;;;;;;;32.94;32.62;101493.78;5005591;28;20095;-95
2023/06/25 12:49:09;;;;;;;7.85;7.05;;;;;;;32.81;34.89;101490.09;5000353;28;20022;-95
2023/06/25 12:51:40;;;;;;;7.38;6.57;;;;;;;33.08;33.42;101487.50;5006145;28;20021;-95
2023/06/25 12:54:07;;;;;;;7.47;6.78;;;;;;;33.20;33.53;101486.75;5014463;28;20025;-95
2023/06/25 12:59:03;;;;;;;8.00;7.03;;;;;;;32.56;32.47;101481.59;5014564;28;20312;-60
2023/06/25 13:01:28;;;;;;;8.57;6.97;;;;;;;32.08;33.54;101470.84;5047279;22;20057;-59
2023/06/25 13:03:54;;;;;;;7.03;6.33;;;;;;;31.75;31.88;101472.75;5123165;22;20041;-60
2023/06/25 13:06:20;;;;;;;7.43;6.72;;;;;;;31.59;34.75;101467.34;5045835;22;20309;-60
2023/06/25 13:08:45;;;;;;;8.05;7.10;;;;;;;31.79;35.04;101471.63;5164603;22;20054;-59
2023/06/25 13:11:11;;;;;;;7.30;6.65;;;;;;;32.20;34.60;101469.28;5174445;22;20053;-60
2023/06/25 13:13:36;;;;;;;7.30;6.57;;;;;;;32.69;33.95;101468.25;5217694;22;20057;-59
2023/06/25 13:21:08;;;;;;;7.60;6.63;;;;;;;32.77;34.19;101451.59;4990797;26;20108;-59
2023/06/25 13:23:34;;;;;;;7.43;6.72;;;;;;;32.54;31.15;101458.34;5037310;22;20080;-58
2023/06/25 13:28:29;;;;;;;7.18;6.47;;;;;;;32.73;33.25;101459.03;5034947;23;20050;-95
2023/06/25 13:30:57;;;;;;;7.22;6.53;;;;;;;32.56;32.44;101454.59;5010352;28;20069;-94
2023/06/25 13:33:22;;;;;;;7.53;6.78;;;;;;;32.04;30.44;101453.09;5005600;28;21174;-96
2023/06/25 13:35:48;;;;;;;7.32;6.50;;;;;;;31.80;32.41;101454.50;5005515;28;20143;-95
2023/06/25 13:38:15;;;;;;;6.78;6.15;;;;;;;31.85;33.13;101445.19;4999575;28;20415;-95
2023/06/25 13:40:47;;;;;;;7.10;6.30;;;;;;;31.98;33.76;101449.88;5019714;28;20483;-95
2023/06/25 13:43:12;;;;;;;7.32;6.53;;;;;;;32.37;34.06;101441.34;5021970;28;20319;-95
2023/06/25 13:45:38;;;;;;;7.20;6.50;;;;;;;32.90;32.80;101441.78;5007069;28;20067;-95
2023/06/25 13:48:03;;;;;;;6.93;6.22;;;;;;;33.21;33.56;101452.50;5006823;28;20087;-96